sensor_id;sensor_type;location;lat;lon;timestamp;temperature;humidity
78297;DHT22;67555;47.660;19.622;2023-06-14T00:01:53;14.10;66.50
78297;DHT22;67555;47.660;19.622;2023-06-14T00:04:20;14.00;66.60
78297;DHT22;67555;47.660;19.622;2023-06-14T00:06:47;14.00;66.70
78297;DHT22;67555;47.660;19.622;2023-06-14T00:09:14;13.90;66.80
78297;DHT22;67555;47.660;19.622;2023-06-14T00:11:41;13.90;67.00
78297;DHT22;67555;47.660;19.622;2023-06-14T00:14:07;13.80;67.00
78297;DHT22;67555;47.660;19.622;2023-06-14T00:16:33;13.70;67.20
78297;DHT22;67555;47.660;19.622;2023-06-14T00:19:03;13.70;67.30
78297;DHT22;67555;47.660;19.622;2023-06-14T00:21:30;13.60;67.40
78297;DHT22;67555;47.660;19.622;2023-06-14T00:23:57;13.60;67.50
78297;DHT22;67555;47.660;19.622;2023-06-14T00:26:23;13.50;67.60
78297;DHT22;67555;47.660;19.622;2023-06-14T00:28:49;13.50;67.60
78297;DHT22;67555;47.660;19.622;2023-06-14T00:31:15;13.50;67.70
78297;DHT22;67555;47.660;19.622;2023-06-14T00:33:41;13.40;67.80
78297;DHT22;67555;47.660;19.622;2023-06-14T00:36:06;13.40;67.90
78297;DHT22;67555;47.660;19.622;2023-06-14T00:38:32;13.30;68.00
78297;DHT22;67555;47.660;19.622;2023-06-14T00:40:58;13.30;68.00
78297;DHT22;67555;47.660;19.622;2023-06-14T00:43:25;13.30;68.10
78297;DHT22;67555;47.660;19.622;2023-06-14T00:45:50;13.30;68.20
78297;DHT22;67555;47.660;19.622;2023-06-14T00:48:17;13.30;68.30
78297;DHT22;67555;47.660;19.622;2023-06-14T00:50:43;13.30;68.40
78297;DHT22;67555;47.660;19.622;2023-06-14T00:53:12;13.20;68.50
78297;DHT22;67555;47.660;19.622;2023-06-14T00:55:38;13.10;68.80
78297;DHT22;67555;47.660;19.622;2023-06-14T00:58:03;13.10;69.00
78297;DHT22;67555;47.660;19.622;2023-06-14T01:00:29;13.10;69.00
78297;DHT22;67555;47.660;19.622;2023-06-14T01:02:55;13.10;69.00
78297;DHT22;67555;47.660;19.622;2023-06-14T01:05:22;13.10;69.10
78297;DHT22;67555;47.660;19.622;2023-06-14T01:13:12;12.80;70.10
78297;DHT22;67555;47.660;19.622;2023-06-14T01:15:41;12.80;70.10
78297;DHT22;67555;47.660;19.622;2023-06-14T01:18:08;12.90;69.90
78297;DHT22;67555;47.660;19.622;2023-06-14T01:20:43;12.70;70.00
78297;DHT22;67555;47.660;19.622;2023-06-14T01:23:10;12.50;70.40
78297;DHT22;67555;47.660;19.622;2023-06-14T01:25:37;12.40;70.40
78297;DHT22;67555;47.660;19.622;2023-06-14T01:28:06;12.20;70.50
78297;DHT22;67555;47.660;19.622;2023-06-14T01:30:38;12.20;70.60
78297;DHT22;67555;47.660;19.622;2023-06-14T01:33:04;12.10;70.70
78297;DHT22;67555;47.660;19.622;2023-06-14T01:35:31;12.10;70.80
78297;DHT22;67555;47.660;19.622;2023-06-14T01:37:57;12.10;70.90
78297;DHT22;67555;47.660;19.622;2023-06-14T01:40:24;12.10;70.90
78297;DHT22;67555;47.660;19.622;2023-06-14T01:42:51;12.10;71.00
78297;DHT22;67555;47.660;19.622;2023-06-14T01:45:18;12.10;71.00
78297;DHT22;67555;47.660;19.622;2023-06-14T01:47:44;12.20;70.90
78297;DHT22;67555;47.660;19.622;2023-06-14T01:50:11;12.20;70.70
78297;DHT22;67555;47.660;19.622;2023-06-14T01:52:37;12.20;70.70
78297;DHT22;67555;47.660;19.622;2023-06-14T01:55:05;12.20;70.70
78297;DHT22;67555;47.660;19.622;2023-06-14T01:57:31;12.30;70.70
78297;DHT22;67555;47.660;19.622;2023-06-14T01:59:57;12.10;70.90
78297;DHT22;67555;47.660;19.622;2023-06-14T02:02:23;12.00;71.30
78297;DHT22;67555;47.660;19.622;2023-06-14T02:04:48;11.90;71.70
78297;DHT22;67555;47.660;19.622;2023-06-14T02:07:14;12.00;71.70
78297;DHT22;67555;47.660;19.622;2023-06-14T02:09:41;12.00;71.60
78297;DHT22;67555;47.660;19.622;2023-06-14T02:12:07;12.10;71.50
78297;DHT22;67555;47.660;19.622;2023-06-14T02:14:33;12.10;71.40
78297;DHT22;67555;47.660;19.622;2023-06-14T02:16:59;12.10;71.40
78297;DHT22;67555;47.660;19.622;2023-06-14T02:19:26;12.20;71.50
78297;DHT22;67555;47.660;19.622;2023-06-14T02:21:52;12.20;71.40
78297;DHT22;67555;47.660;19.622;2023-06-14T02:24:18;12.20;71.40
78297;DHT22;67555;47.660;19.622;2023-06-14T02:26:44;12.20;71.30
78297;DHT22;67555;47.660;19.622;2023-06-14T02:29:09;12.30;71.20
78297;DHT22;67555;47.660;19.622;2023-06-14T02:31:38;12.30;71.40
78297;DHT22;67555;47.660;19.622;2023-06-14T02:34:04;12.30;71.40
78297;DHT22;67555;47.660;19.622;2023-06-14T02:36:30;12.20;71.50
78297;DHT22;67555;47.660;19.622;2023-06-14T02:38:56;12.10;71.80
78297;DHT22;67555;47.660;19.622;2023-06-14T02:41:26;12.10;71.90
78297;DHT22;67555;47.660;19.622;2023-06-14T02:43:52;12.10;71.80
78297;DHT22;67555;47.660;19.622;2023-06-14T02:46:18;12.00;72.00
78297;DHT22;67555;47.660;19.622;2023-06-14T02:48:44;12.00;72.20
78297;DHT22;67555;47.660;19.622;2023-06-14T02:51:10;12.00;72.30
78297;DHT22;67555;47.660;19.622;2023-06-14T02:53:36;11.90;72.40
78297;DHT22;67555;47.660;19.622;2023-06-14T02:56:02;11.90;72.50
78297;DHT22;67555;47.660;19.622;2023-06-14T02:58:29;11.90;72.60
78297;DHT22;67555;47.660;19.622;2023-06-14T03:00:55;11.70;72.90
78297;DHT22;67555;47.660;19.622;2023-06-14T03:03:21;11.70;73.00
78297;DHT22;67555;47.660;19.622;2023-06-14T03:05:50;11.60;73.10
78297;DHT22;67555;47.660;19.622;2023-06-14T03:08:17;11.60;73.10
78297;DHT22;67555;47.660;19.622;2023-06-14T03:10:48;11.70;73.00
78297;DHT22;67555;47.660;19.622;2023-06-14T03:13:17;11.60;73.20
78297;DHT22;67555;47.660;19.622;2023-06-14T03:15:46;11.50;73.40
78297;DHT22;67555;47.660;19.622;2023-06-14T03:18:13;11.50;73.60
78297;DHT22;67555;47.660;19.622;2023-06-14T03:20:40;11.50;73.80
78297;DHT22;67555;47.660;19.622;2023-06-14T03:23:06;11.40;74.00
78297;DHT22;67555;47.660;19.622;2023-06-14T03:25:32;11.40;74.20
78297;DHT22;67555;47.660;19.622;2023-06-14T03:28:04;11.50;74.30
78297;DHT22;67555;47.660;19.622;2023-06-14T03:30:30;11.50;74.30
78297;DHT22;67555;47.660;19.622;2023-06-14T03:32:57;11.60;74.20
78297;DHT22;67555;47.660;19.622;2023-06-14T03:35:23;11.70;74.20
78297;DHT22;67555;47.660;19.622;2023-06-14T03:37:49;11.80;74.00
78297;DHT22;67555;47.660;19.622;2023-06-14T03:40:17;11.90;74.00
78297;DHT22;67555;47.660;19.622;2023-06-14T03:42:43;11.90;74.10
78297;DHT22;67555;47.660;19.622;2023-06-14T03:45:09;11.90;74.20
78297;DHT22;67555;47.660;19.622;2023-06-14T03:47:35;12.00;74.30
78297;DHT22;67555;47.660;19.622;2023-06-14T03:50:02;12.00;74.30
78297;DHT22;67555;47.660;19.622;2023-06-14T03:52:30;12.10;74.20
78297;DHT22;67555;47.660;19.622;2023-06-14T03:54:57;12.20;74.10
78297;DHT22;67555;47.660;19.622;2023-06-14T03:57:23;12.30;74.10
78297;DHT22;67555;47.660;19.622;2023-06-14T03:59:49;12.40;74.10
78297;DHT22;67555;47.660;19.622;2023-06-14T04:02:15;12.50;73.80
78297;DHT22;67555;47.660;19.622;2023-06-14T04:04:45;12.70;73.50
78297;DHT22;67555;47.660;19.622;2023-06-14T04:07:15;12.70;73.30
78297;DHT22;67555;47.660;19.622;2023-06-14T04:09:44;12.80;73.20
78297;DHT22;67555;47.660;19.622;2023-06-14T04:12:10;12.90;73.20
78297;DHT22;67555;47.660;19.622;2023-06-14T04:14:37;12.90;73.20
78297;DHT22;67555;47.660;19.622;2023-06-14T04:17:03;12.90;73.20
78297;DHT22;67555;47.660;19.622;2023-06-14T04:19:28;12.80;73.40
78297;DHT22;67555;47.660;19.622;2023-06-14T04:21:54;12.80;73.40
78297;DHT22;67555;47.660;19.622;2023-06-14T04:24:20;12.80;73.50
78297;DHT22;67555;47.660;19.622;2023-06-14T04:26:47;12.90;73.60
78297;DHT22;67555;47.660;19.622;2023-06-14T04:29:17;13.00;73.50
78297;DHT22;67555;47.660;19.622;2023-06-14T04:31:45;13.00;73.50
78297;DHT22;67555;47.660;19.622;2023-06-14T04:34:12;13.10;73.40
78297;DHT22;67555;47.660;19.622;2023-06-14T04:36:44;13.10;73.40
78297;DHT22;67555;47.660;19.622;2023-06-14T04:39:17;13.30;73.30
78297;DHT22;67555;47.660;19.622;2023-06-14T04:41:44;13.30;73.20
78297;DHT22;67555;47.660;19.622;2023-06-14T04:44:10;13.40;73.00
78297;DHT22;67555;47.660;19.622;2023-06-14T04:46:36;13.50;72.90
78297;DHT22;67555;47.660;19.622;2023-06-14T04:49:21;13.50;73.10
78297;DHT22;67555;47.660;19.622;2023-06-14T04:51:49;13.50;73.60
78297;DHT22;67555;47.660;19.622;2023-06-14T04:54:23;13.50;73.80
78297;DHT22;67555;47.660;19.622;2023-06-14T04:56:51;13.60;73.70
78297;DHT22;67555;47.660;19.622;2023-06-14T04:59:18;13.90;73.40
78297;DHT22;67555;47.660;19.622;2023-06-14T05:01:44;14.10;73.00
78297;DHT22;67555;47.660;19.622;2023-06-14T05:04:17;14.30;72.50
78297;DHT22;67555;47.660;19.622;2023-06-14T05:06:44;14.40;72.30
78297;DHT22;67555;47.660;19.622;2023-06-14T05:09:20;14.40;72.40
78297;DHT22;67555;47.660;19.622;2023-06-14T05:11:46;14.50;72.10
78297;DHT22;67555;47.660;19.622;2023-06-14T05:14:13;14.60;71.90
78297;DHT22;67555;47.660;19.622;2023-06-14T05:16:40;14.80;71.50
78297;DHT22;67555;47.660;19.622;2023-06-14T05:19:06;15.00;71.20
78297;DHT22;67555;47.660;19.622;2023-06-14T05:21:32;15.10;70.70
78297;DHT22;67555;47.660;19.622;2023-06-14T05:24:00;15.30;70.40
78297;DHT22;67555;47.660;19.622;2023-06-14T05:26:26;15.40;70.10
78297;DHT22;67555;47.660;19.622;2023-06-14T05:29:00;15.60;69.90
78297;DHT22;67555;47.660;19.622;2023-06-14T05:31:28;15.60;69.70
78297;DHT22;67555;47.660;19.622;2023-06-14T05:33:54;15.80;69.40
78297;DHT22;67555;47.660;19.622;2023-06-14T05:36:20;16.00;69.10
78297;DHT22;67555;47.660;19.622;2023-06-14T05:38:49;16.10;68.90
78297;DHT22;67555;47.660;19.622;2023-06-14T05:41:16;16.20;68.50
78297;DHT22;67555;47.660;19.622;2023-06-14T05:43:41;16.30;68.30
78297;DHT22;67555;47.660;19.622;2023-06-14T05:46:07;16.40;68.10
78297;DHT22;67555;47.660;19.622;2023-06-14T05:48:33;16.60;68.00
78297;DHT22;67555;47.660;19.622;2023-06-14T05:50:59;16.70;67.60
78297;DHT22;67555;47.660;19.622;2023-06-14T05:53:25;16.80;67.40
78297;DHT22;67555;47.660;19.622;2023-06-14T05:55:51;16.90;67.20
78297;DHT22;67555;47.660;19.622;2023-06-14T05:58:21;17.00;66.90
78297;DHT22;67555;47.660;19.622;2023-06-14T06:00:47;17.20;66.60
78297;DHT22;67555;47.660;19.622;2023-06-14T06:03:13;17.40;66.40
78297;DHT22;67555;47.660;19.622;2023-06-14T06:05:39;17.40;66.10
78297;DHT22;67555;47.660;19.622;2023-06-14T06:08:05;17.50;66.00
78297;DHT22;67555;47.660;19.622;2023-06-14T06:10:31;17.60;65.80
78297;DHT22;67555;47.660;19.622;2023-06-14T06:12:56;17.70;65.60
78297;DHT22;67555;47.660;19.622;2023-06-14T06:15:22;17.70;65.50
78297;DHT22;67555;47.660;19.622;2023-06-14T06:17:48;17.70;65.40
78297;DHT22;67555;47.660;19.622;2023-06-14T06:20:13;17.80;65.30
78297;DHT22;67555;47.660;19.622;2023-06-14T06:22:39;17.80;65.20
78297;DHT22;67555;47.660;19.622;2023-06-14T06:25:06;17.80;65.10
78297;DHT22;67555;47.660;19.622;2023-06-14T06:27:32;17.90;65.00
78297;DHT22;67555;47.660;19.622;2023-06-14T06:29:58;18.00;64.80
78297;DHT22;67555;47.660;19.622;2023-06-14T06:32:25;18.00;64.90
78297;DHT22;67555;47.660;19.622;2023-06-14T06:34:51;18.00;64.80
78297;DHT22;67555;47.660;19.622;2023-06-14T06:37:17;18.10;64.70
78297;DHT22;67555;47.660;19.622;2023-06-14T06:39:43;18.20;64.50
78297;DHT22;67555;47.660;19.622;2023-06-14T06:42:09;18.30;64.20
78297;DHT22;67555;47.660;19.622;2023-06-14T06:44:36;18.40;64.00
78297;DHT22;67555;47.660;19.622;2023-06-14T06:47:01;18.50;63.80
78297;DHT22;67555;47.660;19.622;2023-06-14T06:49:27;18.60;63.60
78297;DHT22;67555;47.660;19.622;2023-06-14T06:52:01;18.80;63.40
78297;DHT22;67555;47.660;19.622;2023-06-14T06:54:30;18.90;63.00
78297;DHT22;67555;47.660;19.622;2023-06-14T06:56:56;19.10;62.70
78297;DHT22;67555;47.660;19.622;2023-06-14T06:59:22;19.30;62.40
78297;DHT22;67555;47.660;19.622;2023-06-14T07:01:48;19.40;62.10
78297;DHT22;67555;47.660;19.622;2023-06-14T07:04:14;19.50;61.90
78297;DHT22;67555;47.660;19.622;2023-06-14T07:06:41;19.70;61.50
78297;DHT22;67555;47.660;19.622;2023-06-14T07:09:06;19.70;61.30
78297;DHT22;67555;47.660;19.622;2023-06-14T07:11:41;19.90;61.10
78297;DHT22;67555;47.660;19.622;2023-06-14T07:14:07;20.00;60.80
78297;DHT22;67555;47.660;19.622;2023-06-14T07:16:33;20.00;60.70
78297;DHT22;67555;47.660;19.622;2023-06-14T07:18:59;20.10;60.50
78297;DHT22;67555;47.660;19.622;2023-06-14T07:21:26;20.30;60.10
78297;DHT22;67555;47.660;19.622;2023-06-14T07:23:53;20.30;59.60
78297;DHT22;67555;47.660;19.622;2023-06-14T07:26:19;20.40;59.20
78297;DHT22;67555;47.660;19.622;2023-06-14T07:28:45;20.40;59.00
78297;DHT22;67555;47.660;19.622;2023-06-14T07:31:11;20.40;59.00
78297;DHT22;67555;47.660;19.622;2023-06-14T07:33:38;20.40;59.00
78297;DHT22;67555;47.660;19.622;2023-06-14T07:36:04;20.50;59.10
78297;DHT22;67555;47.660;19.622;2023-06-14T07:38:29;20.50;59.10
78297;DHT22;67555;47.660;19.622;2023-06-14T07:40:55;20.60;59.20
78297;DHT22;67555;47.660;19.622;2023-06-14T07:43:21;20.60;59.10
78297;DHT22;67555;47.660;19.622;2023-06-14T07:45:47;20.70;59.10
78297;DHT22;67555;47.660;19.622;2023-06-14T07:48:12;20.80;58.80
78297;DHT22;67555;47.660;19.622;2023-06-14T07:50:38;20.90;58.40
78297;DHT22;67555;47.660;19.622;2023-06-14T07:53:04;21.00;58.20
78297;DHT22;67555;47.660;19.622;2023-06-14T07:55:30;21.10;58.00
78297;DHT22;67555;47.660;19.622;2023-06-14T07:57:58;21.00;57.80
78297;DHT22;67555;47.660;19.622;2023-06-14T08:00:24;21.00;57.80
78297;DHT22;67555;47.660;19.622;2023-06-14T08:02:50;20.90;57.70
78297;DHT22;67555;47.660;19.622;2023-06-14T08:05:17;20.90;58.00
78297;DHT22;67555;47.660;19.622;2023-06-14T08:07:43;20.90;58.20
78297;DHT22;67555;47.660;19.622;2023-06-14T08:10:09;20.80;58.10
78297;DHT22;67555;47.660;19.622;2023-06-14T08:12:35;20.80;58.20
78297;DHT22;67555;47.660;19.622;2023-06-14T08:15:00;20.80;58.40
78297;DHT22;67555;47.660;19.622;2023-06-14T08:17:26;20.90;58.40
78297;DHT22;67555;47.660;19.622;2023-06-14T08:19:53;20.90;58.10
78297;DHT22;67555;47.660;19.622;2023-06-14T08:22:23;20.90;57.80
78297;DHT22;67555;47.660;19.622;2023-06-14T08:24:50;20.80;58.00
78297;DHT22;67555;47.660;19.622;2023-06-14T08:27:16;20.90;58.20
78297;DHT22;67555;47.660;19.622;2023-06-14T08:29:42;21.00;57.90
78297;DHT22;67555;47.660;19.622;2023-06-14T08:32:09;21.10;57.70
78297;DHT22;67555;47.660;19.622;2023-06-14T08:34:34;21.30;57.00
78297;DHT22;67555;47.660;19.622;2023-06-14T08:37:01;21.30;56.40
78297;DHT22;67555;47.660;19.622;2023-06-14T08:39:26;21.40;55.80
78297;DHT22;67555;47.660;19.622;2023-06-14T08:41:52;21.30;55.50
78297;DHT22;67555;47.660;19.622;2023-06-14T08:44:18;21.50;55.60
78297;DHT22;67555;47.660;19.622;2023-06-14T08:46:44;21.80;55.30
78297;DHT22;67555;47.660;19.622;2023-06-14T08:49:16;22.10;54.80
78297;DHT22;67555;47.660;19.622;2023-06-14T08:51:43;22.50;54.30
78297;DHT22;67555;47.660;19.622;2023-06-14T08:54:10;22.70;53.70
78297;DHT22;67555;47.660;19.622;2023-06-14T08:56:38;23.00;53.10
78297;DHT22;67555;47.660;19.622;2023-06-14T08:59:05;23.00;51.10
78297;DHT22;67555;47.660;19.622;2023-06-14T09:01:35;22.90;51.10
78297;DHT22;67555;47.660;19.622;2023-06-14T09:04:02;22.70;51.50
78297;DHT22;67555;47.660;19.622;2023-06-14T09:06:28;22.60;51.50
78297;DHT22;67555;47.660;19.622;2023-06-14T09:08:55;22.40;51.60
78297;DHT22;67555;47.660;19.622;2023-06-14T09:11:22;22.10;52.10
78297;DHT22;67555;47.660;19.622;2023-06-14T09:13:49;22.10;52.50
78297;DHT22;67555;47.660;19.622;2023-06-14T09:16:15;22.30;52.40
78297;DHT22;67555;47.660;19.622;2023-06-14T09:18:46;22.60;52.00
78297;DHT22;67555;47.660;19.622;2023-06-14T09:21:15;22.80;51.50
78297;DHT22;67555;47.660;19.622;2023-06-14T09:23:46;23.10;51.30
78297;DHT22;67555;47.660;19.622;2023-06-14T09:26:17;23.10;50.80
78297;DHT22;67555;47.660;19.622;2023-06-14T09:28:50;23.20;50.60
78297;DHT22;67555;47.660;19.622;2023-06-14T09:31:20;23.00;49.20
78297;DHT22;67555;47.660;19.622;2023-06-14T09:33:48;23.00;50.00
78297;DHT22;67555;47.660;19.622;2023-06-14T09:36:24;23.20;50.10
78297;DHT22;67555;47.660;19.622;2023-06-14T09:38:58;23.40;49.80
78297;DHT22;67555;47.660;19.622;2023-06-14T09:41:34;23.80;49.40
78297;DHT22;67555;47.660;19.622;2023-06-14T09:44:02;24.00;48.70
78297;DHT22;67555;47.660;19.622;2023-06-14T09:46:29;24.20;48.40
78297;DHT22;67555;47.660;19.622;2023-06-14T09:48:58;24.20;48.20
78297;DHT22;67555;47.660;19.622;2023-06-14T09:51:25;24.30;48.00
78297;DHT22;67555;47.660;19.622;2023-06-14T09:53:52;24.40;48.00
78297;DHT22;67555;47.660;19.622;2023-06-14T09:56:34;24.50;47.80
78297;DHT22;67555;47.660;19.622;2023-06-14T09:59:00;24.50;47.80
78297;DHT22;67555;47.660;19.622;2023-06-14T10:01:30;24.80;47.90
78297;DHT22;67555;47.660;19.622;2023-06-14T10:04:06;25.10;47.40
78297;DHT22;67555;47.660;19.622;2023-06-14T10:06:36;25.40;46.80
78297;DHT22;67555;47.660;19.622;2023-06-14T10:09:04;25.60;46.10
78297;DHT22;67555;47.660;19.622;2023-06-14T10:11:31;25.60;45.90
78297;DHT22;67555;47.660;19.622;2023-06-14T10:13:58;25.70;45.70
78297;DHT22;67555;47.660;19.622;2023-06-14T10:19:34;25.80;45.10
78297;DHT22;67555;47.660;19.622;2023-06-14T10:22:11;25.70;43.90
78297;DHT22;67555;47.660;19.622;2023-06-14T10:24:41;25.60;44.20
78297;DHT22;67555;47.660;19.622;2023-06-14T10:27:08;25.80;44.40
78297;DHT22;67555;47.660;19.622;2023-06-14T10:32:22;26.10;44.10
78297;DHT22;67555;47.660;19.622;2023-06-14T10:34:58;26.20;43.90
78297;DHT22;67555;47.660;19.622;2023-06-14T10:37:24;25.80;43.10
78297;DHT22;67555;47.660;19.622;2023-06-14T10:39:50;25.50;43.50
78297;DHT22;67555;47.660;19.622;2023-06-14T10:42:16;25.00;43.20
78297;DHT22;67555;47.660;19.622;2023-06-14T10:44:53;24.70;43.50
78297;DHT22;67555;47.660;19.622;2023-06-14T10:49:57;24.20;41.80
78297;DHT22;67555;47.660;19.622;2023-06-14T10:52:28;24.00;43.50
78297;DHT22;67555;47.660;19.622;2023-06-14T10:57:35;23.50;46.30
78297;DHT22;67555;47.660;19.622;2023-06-14T11:00:03;23.40;47.00
78297;DHT22;67555;47.660;19.622;2023-06-14T11:05:26;22.90;46.80
78297;DHT22;67555;47.660;19.622;2023-06-14T11:08:27;22.90;47.10
78297;DHT22;67555;47.660;19.622;2023-06-14T11:11:06;23.00;47.10
78297;DHT22;67555;47.660;19.622;2023-06-14T11:13:32;23.20;46.20
78297;DHT22;67555;47.660;19.622;2023-06-14T11:15:58;23.40;45.50
78297;DHT22;67555;47.660;19.622;2023-06-14T11:18:24;23.60;45.40
78297;DHT22;67555;47.660;19.622;2023-06-14T11:20:50;23.70;44.90
78297;DHT22;67555;47.660;19.622;2023-06-14T11:23:16;23.90;44.30
78297;DHT22;67555;47.660;19.622;2023-06-14T11:25:42;24.00;42.80
78297;DHT22;67555;47.660;19.622;2023-06-14T11:28:08;24.00;41.70
78297;DHT22;67555;47.660;19.622;2023-06-14T11:30:33;24.10;42.00
78297;DHT22;67555;47.660;19.622;2023-06-14T11:32:59;24.20;42.20
78297;DHT22;67555;47.660;19.622;2023-06-14T11:35:26;24.00;41.20
78297;DHT22;67555;47.660;19.622;2023-06-14T11:37:55;23.60;41.70
78297;DHT22;67555;47.660;19.622;2023-06-14T11:40:24;23.50;42.20
78297;DHT22;67555;47.660;19.622;2023-06-14T11:43:01;23.40;42.30
78297;DHT22;67555;47.660;19.622;2023-06-14T11:45:27;23.40;42.70
78297;DHT22;67555;47.660;19.622;2023-06-14T11:47:55;23.50;43.10
78297;DHT22;67555;47.660;19.622;2023-06-14T11:50:25;23.60;42.60
78297;DHT22;67555;47.660;19.622;2023-06-14T11:52:55;23.80;42.80
78297;DHT22;67555;47.660;19.622;2023-06-14T11:55:22;24.00;42.80
78297;DHT22;67555;47.660;19.622;2023-06-14T11:57:48;24.20;42.40
78297;DHT22;67555;47.660;19.622;2023-06-14T12:00:14;24.50;41.90
78297;DHT22;67555;47.660;19.622;2023-06-14T12:02:43;24.60;40.50
78297;DHT22;67555;47.660;19.622;2023-06-14T12:05:10;24.70;39.50
78297;DHT22;67555;47.660;19.622;2023-06-14T12:07:39;24.70;39.60
78297;DHT22;67555;47.660;19.622;2023-06-14T12:10:09;25.00;40.10
78297;DHT22;67555;47.660;19.622;2023-06-14T12:12:40;25.30;40.00
78297;DHT22;67555;47.660;19.622;2023-06-14T12:15:10;25.40;39.00
78297;DHT22;67555;47.660;19.622;2023-06-14T12:17:39;25.40;39.00
78297;DHT22;67555;47.660;19.622;2023-06-14T12:20:12;25.40;38.90
78297;DHT22;67555;47.660;19.622;2023-06-14T12:22:57;25.50;38.90
78297;DHT22;67555;47.660;19.622;2023-06-14T12:28:04;26.00;38.80
78297;DHT22;67555;47.660;19.622;2023-06-14T12:30:30;26.40;38.10
78297;DHT22;67555;47.660;19.622;2023-06-14T12:32:56;26.40;35.90
78297;DHT22;67555;47.660;19.622;2023-06-14T12:35:22;26.20;34.30
78297;DHT22;67555;47.660;19.622;2023-06-14T12:37:47;25.90;35.00
78297;DHT22;67555;47.660;19.622;2023-06-14T12:40:14;25.80;35.40
78297;DHT22;67555;47.660;19.622;2023-06-14T12:42:40;25.90;36.10
78297;DHT22;67555;47.660;19.622;2023-06-14T12:45:06;26.10;36.70
78297;DHT22;67555;47.660;19.622;2023-06-14T12:47:32;26.40;35.50
78297;DHT22;67555;47.660;19.622;2023-06-14T12:49:58;26.40;34.70
78297;DHT22;67555;47.660;19.622;2023-06-14T12:52:23;26.40;34.50
78297;DHT22;67555;47.660;19.622;2023-06-14T12:54:50;26.50;34.00
78297;DHT22;67555;47.660;19.622;2023-06-14T12:57:15;26.50;34.30
78297;DHT22;67555;47.660;19.622;2023-06-14T12:59:41;26.40;34.40
78297;DHT22;67555;47.660;19.622;2023-06-14T13:02:13;26.50;35.10
78297;DHT22;67555;47.660;19.622;2023-06-14T13:04:39;26.70;34.20
78297;DHT22;67555;47.660;19.622;2023-06-14T13:07:05;26.90;33.70
78297;DHT22;67555;47.660;19.622;2023-06-14T13:09:31;26.90;33.50
78297;DHT22;67555;47.660;19.622;2023-06-14T13:11:56;26.80;34.10
78297;DHT22;67555;47.660;19.622;2023-06-14T13:14:22;26.70;35.80
78297;DHT22;67555;47.660;19.622;2023-06-14T13:16:48;26.40;36.60
78297;DHT22;67555;47.660;19.622;2023-06-14T13:19:13;25.90;36.50
78297;DHT22;67555;47.660;19.622;2023-06-14T13:21:39;25.60;37.70
78297;DHT22;67555;47.660;19.622;2023-06-14T13:24:05;25.30;38.80
78297;DHT22;67555;47.660;19.622;2023-06-14T13:26:32;25.10;38.80
78297;DHT22;67555;47.660;19.622;2023-06-14T13:28:58;25.00;39.00
78297;DHT22;67555;47.660;19.622;2023-06-14T13:31:24;25.00;39.50
78297;DHT22;67555;47.660;19.622;2023-06-14T13:33:50;25.00;39.80
78297;DHT22;67555;47.660;19.622;2023-06-14T13:36:15;25.00;40.30
78297;DHT22;67555;47.660;19.622;2023-06-14T13:38:41;25.00;40.90
78297;DHT22;67555;47.660;19.622;2023-06-14T13:41:07;25.00;41.20
78297;DHT22;67555;47.660;19.622;2023-06-14T13:43:32;25.20;41.00
78297;DHT22;67555;47.660;19.622;2023-06-14T13:45:58;25.30;41.10
78297;DHT22;67555;47.660;19.622;2023-06-14T13:48:24;25.60;40.80
78297;DHT22;67555;47.660;19.622;2023-06-14T13:50:50;25.70;40.30
78297;DHT22;67555;47.660;19.622;2023-06-14T13:53:15;25.80;40.20
78297;DHT22;67555;47.660;19.622;2023-06-14T13:55:41;25.80;39.30
78297;DHT22;67555;47.660;19.622;2023-06-14T13:58:07;25.60;38.80
78297;DHT22;67555;47.660;19.622;2023-06-14T14:00:32;25.40;39.20
78297;DHT22;67555;47.660;19.622;2023-06-14T14:02:59;25.20;38.80
78297;DHT22;67555;47.660;19.622;2023-06-14T14:05:25;25.10;39.10
78297;DHT22;67555;47.660;19.622;2023-06-14T14:07:55;25.00;40.00
78297;DHT22;67555;47.660;19.622;2023-06-14T14:10:23;25.10;40.40
78297;DHT22;67555;47.660;19.622;2023-06-14T14:12:50;25.20;39.00
78297;DHT22;67555;47.660;19.622;2023-06-14T14:15:17;25.30;38.90
78297;DHT22;67555;47.660;19.622;2023-06-14T14:17:44;25.50;39.00
78297;DHT22;67555;47.660;19.622;2023-06-14T14:20:10;25.40;39.20
78297;DHT22;67555;47.660;19.622;2023-06-14T14:22:38;25.40;39.20
78297;DHT22;67555;47.660;19.622;2023-06-14T14:25:03;25.60;39.10
78297;DHT22;67555;47.660;19.622;2023-06-14T14:27:29;25.80;38.90
78297;DHT22;67555;47.660;19.622;2023-06-14T14:29:55;26.00;38.90
78297;DHT22;67555;47.660;19.622;2023-06-14T14:32:21;26.00;39.00
78297;DHT22;67555;47.660;19.622;2023-06-14T14:34:48;25.80;39.50
78297;DHT22;67555;47.660;19.622;2023-06-14T14:37:13;25.80;39.30
78297;DHT22;67555;47.660;19.622;2023-06-14T14:39:40;25.80;39.70
78297;DHT22;67555;47.660;19.622;2023-06-14T14:42:06;25.90;39.60
78297;DHT22;67555;47.660;19.622;2023-06-14T14:44:33;25.80;39.60
78297;DHT22;67555;47.660;19.622;2023-06-14T14:46:59;25.70;39.70
78297;DHT22;67555;47.660;19.622;2023-06-14T14:49:25;25.60;39.40
78297;DHT22;67555;47.660;19.622;2023-06-14T14:51:50;25.30;39.40
78297;DHT22;67555;47.660;19.622;2023-06-14T14:54:16;25.00;39.40
78297;DHT22;67555;47.660;19.622;2023-06-14T14:56:42;24.80;39.80
78297;DHT22;67555;47.660;19.622;2023-06-14T14:59:07;24.70;40.10
78297;DHT22;67555;47.660;19.622;2023-06-14T15:01:33;24.60;39.70
78297;DHT22;67555;47.660;19.622;2023-06-14T15:03:59;24.50;39.60
78297;DHT22;67555;47.660;19.622;2023-06-14T15:06:24;24.40;40.30
78297;DHT22;67555;47.660;19.622;2023-06-14T15:08:51;24.40;40.10
78297;DHT22;67555;47.660;19.622;2023-06-14T15:11:17;24.40;40.10
78297;DHT22;67555;47.660;19.622;2023-06-14T15:13:42;24.40;40.90
78297;DHT22;67555;47.660;19.622;2023-06-14T15:16:08;24.30;40.70
78297;DHT22;67555;47.660;19.622;2023-06-14T15:18:34;24.20;40.40
78297;DHT22;67555;47.660;19.622;2023-06-14T15:21:00;24.20;40.10
78297;DHT22;67555;47.660;19.622;2023-06-14T15:23:25;24.20;40.20
78297;DHT22;67555;47.660;19.622;2023-06-14T15:25:51;24.10;40.30
78297;DHT22;67555;47.660;19.622;2023-06-14T15:28:17;24.00;40.40
78297;DHT22;67555;47.660;19.622;2023-06-14T15:30:43;24.00;40.80
78297;DHT22;67555;47.660;19.622;2023-06-14T15:33:09;24.00;41.00
78297;DHT22;67555;47.660;19.622;2023-06-14T15:35:34;24.00;40.60
78297;DHT22;67555;47.660;19.622;2023-06-14T15:38:00;24.00;39.80